• Join FlightAware (Why Join?)
  • Login
  • US Flag 
07:51PM EDT


 

Airport Tracker/Info


-or-


 

Live Flight TrackerFlight Track Log ✈ DAL1050 ✈ 22-Apr-2013 ✈ KATL - KRSW

Flight Track Log - Related Links

Times and Time Zones

All times are in EDT time to prevent confusion due to time zone crossing. See the DAL1050 flight status page for this flight to view local times or setup timezone preferences in your user account.

Time Position Orientation Groundspeed Altitude Reporting Facility
EDT Latitude Longitude Course Direction KTS MPH feet Rate Location/Type
10:06PM 33.6333 -84.3833 199° South 193 222 3,300  Level Atlanta TRACON
10:07PM 33.6167 -84.3000 103° East 262 302 6,600 2,520 Climbing Atlanta TRACON
10:08PM 33.3672 -84.2909 194° South  Level FlightAware Approximate
10:08PM 33.4914 -84.2781 172° South 294 338 9,900  Level Atlanta Center
10:09PM 33.2477 -84.3258 194° South  Level FlightAware Approximate
10:09PM 33.4183 -84.2878 186° South 294 338 10,200  Level Atlanta Center
10:10PM 33.1280 -84.3607 194° South  Level FlightAware Approximate
10:10PM 33.3264 -84.3172 195° South 319 367 12,300  Level Atlanta Center
10:11PM 33.0086 -84.3932 199° South  Level FlightAware Approximate
10:11PM 33.2219 -84.3467 193° South 368 423 15,700  Level Atlanta Center
10:12PM 33.1153 -84.3786 194° South 395 455 18,400 2,700 Climbing Atlanta Center
10:13PM 33.0025 -84.4103 193° South 407 468 21,100 2,520 Climbing Atlanta Center
10:14PM 32.8794 -84.4222 185° South 435 501 23,500 2,040 Climbing Atlanta Center
10:15PM 32.7583 -84.4192 179° South 448 516 25,200 1,800 Climbing Atlanta Center
10:16PM 32.6247 -84.4186 180° South 460 529 27,100 1,740 Climbing Atlanta Center
10:17PM 32.4892 -84.4156 179° South 480 552 28,700 1,740 Climbing Atlanta Center
10:18PM 32.3492 -84.4100 178° South 492 566 30,600 1,800 Climbing Atlanta Center
10:19PM 32.2114 -84.4072 179° South 492 566 32,400 1,020 Climbing Atlanta Center
10:20PM 32.0197 -84.4019 179° South 513 590 33,000 240 Climbing Jacksonville Center
10:21PM 31.8819 -84.3997 179° South 513 590 33,000  Level Jacksonville Center
10:22PM 31.7442 -84.4000 180° South 503 579 33,000  Level Jacksonville Center
10:23PM 31.6044 -84.3953 178° South 498 573 33,000  Level Jacksonville Center
10:24PM 31.4667 -84.3906 178° South 498 573 33,000  Level Jacksonville Center
10:25PM 31.3314 -84.3567 168° South 498 573 33,000  Level Jacksonville Center
10:26PM 31.2108 -84.2967 157° South 503 579 33,000  Level Jacksonville Center
10:27PM 31.0800 -84.2389 159° South 508 585 33,000  Level Jacksonville Center
10:28PM 30.9489 -84.1814 159° South 508 585 33,000  Level Jacksonville Center
10:29PM 30.8181 -84.1239 159° South 508 585 33,000  Level Jacksonville Center
10:30PM 30.6850 -84.0667 160° South 508 585 33,000  Level Jacksonville Center
10:31PM 30.5394 -84.0019 159° South 508 585 33,000  Level Jacksonville Center
10:32PM 30.4208 -83.9500 159° South 508 585 33,000  Level Jacksonville Center
10:33PM 30.2856 -83.8958 161° South 508 585 33,000  Level Jacksonville Center
10:34PM 30.1522 -83.8392 160° South 508 585 33,000  Level Jacksonville Center
10:35PM 30.0211 -83.7850 160° South 508 585 33,000  Level Jacksonville Center
10:36PM 29.8733 -83.7214 160° South 508 585 33,000  Level Jacksonville Center
10:37PM 29.7400 -83.6675 161° South 508 585 33,000  Level Jacksonville Center
10:38PM 29.6089 -83.6117 160° South 508 585 33,000  Level Jacksonville Center
10:39PM 29.4756 -83.5558 160° South 508 585 33,000  Level Jacksonville Center
10:40PM 29.3464 -83.5000 159° South 508 585 33,000  Level Jacksonville Center
10:41PM 29.2131 -83.4444 160° South 508 585 33,000  Level Jacksonville Center
10:42PM 29.0819 -83.3939 161° South 502 578 33,000  Level Jacksonville Center
10:43PM 28.9528 -83.3364 159° South 497 572 33,000 -240 Level Jacksonville Center
10:45PM 28.7394 -83.2611 163° South 500 575 32,500 -660 Descending Miami Center
10:46PM 28.6081 -83.2156 163° South 500 575 31,200 -1,740 Descending Miami Center
10:47PM 28.4747 -83.1678 163° South 500 575 29,100 -1,860 Descending Miami Center
10:48PM 28.3456 -83.1158 161° South 495 570 27,500 -1,080 Descending Miami Center
10:49PM 28.2122 -83.0708 163° South 495 570 27,000 -300 Descending Miami Center
10:50PM 28.0828 -83.0236 162° South 489 563 27,000  Level Miami Center
10:51PM 27.9558 -82.9675 159° South 489 563 27,000  Level Miami Center
10:52PM 27.8289 -82.9089 158° South 494 568 27,000  Level Miami Center
10:53PM 27.6878 -82.8431 158° South 501 577 27,000 -120 Level Miami Center
10:54PM 27.5586 -82.7869 159° South 501 577 26,800 -1,380 Descending Miami Center
10:55PM 27.4442 -82.7342 158° South 492 566 24,300 -1,560 Descending Miami Center
10:56PM 27.3189 -82.6789 159° South 487 560 23,800 -2,340 Descending Miami Center
10:57PM 27.1969 -82.6003 150° Southeast 477 549 19,700 -3,660 Descending Miami Center
10:58PM 27.0978 -82.5233 145° Southeast 454 522 16,400 -2,760 Descending Miami Center
10:59PM 27.0025 -82.4511 146° Southeast 434 499 14,200 -2,280 Descending Miami Center
11:00PM 26.9156 -82.3792 144° Southeast 414 476 12,000 -2,040 Descending Miami Center
11:01PM 26.8325 -82.3125 144° Southeast 387 445 10,300 -1,260 Descending Miami Center
11:02PM 26.7575 -82.2533 145° Southeast 361 415 9,600 -900 Descending Miami Center
11:03PM 26.6906 -82.2014 145° Southeast 324 373 8,500 -1,560 Descending Miami Center
11:04PM 26.6278 -82.1453 141° Southeast 296 341 6,500 -2,220 Descending Miami Center
11:05PM 26.5647 -82.0983 146° Southeast 281 323 4,200 -1,620 Descending Miami Center
11:06PM 26.5192 -82.0336 128° Southeast 274 315 3,400 -660 Descending Miami Center
11:07PM 26.4753 -81.9736 129° Southeast 260 299 2,900 -540 Descending Miami Center